createdAt,value
2023-08-09T00:29:34.606Z,2.20
2023-08-09T01:45:44.746Z,2.25
2023-08-09T01:48:12.919Z,1.98
2023-08-09T01:56:33.255Z,2.20
2023-08-09T01:59:06.881Z,2.10
2023-08-09T02:01:34.409Z,2.22
2023-08-09T02:04:01.772Z,2.33
2023-08-09T02:06:29.123Z,2.47
2023-08-09T02:08:56.564Z,2.15
2023-08-09T02:11:23.873Z,2.03
2023-08-09T02:13:53.627Z,2.00
2023-08-09T02:16:21.619Z,2.38
2023-08-09T02:18:49.926Z,2.20
2023-08-09T02:21:17.175Z,1.92
2023-08-09T02:23:44.522Z,2.00
2023-08-09T02:26:16.272Z,1.90
2023-08-09T02:28:43.647Z,3.13
2023-08-09T02:31:12.526Z,2.17
2023-08-09T02:33:45.332Z,2.40
2023-08-09T02:36:13.208Z,2.45
2023-08-09T02:38:40.551Z,2.35
2023-08-09T02:41:07.753Z,2.47
2023-08-09T02:43:34.976Z,2.40
2023-08-09T02:46:02.494Z,2.33
2023-08-09T02:48:29.660Z,2.40
2023-08-09T02:50:56.977Z,2.00
2023-08-09T02:53:34.151Z,2.15
2023-08-09T02:56:02.176Z,2.00
2023-08-09T02:58:32.588Z,2.30
2023-08-09T03:00:59.908Z,2.15
2023-08-09T03:03:27.355Z,2.42
2023-08-09T03:05:54.781Z,2.05
2023-08-09T03:08:22.380Z,2.10
2023-08-09T03:10:50.042Z,2.00
2023-08-09T03:13:17.987Z,2.35
2023-08-09T03:15:45.933Z,2.08
2023-08-09T03:18:14.751Z,2.28
2023-08-09T03:20:42.623Z,2.13
2023-08-09T03:23:11.661Z,2.03
2023-08-09T03:25:40.162Z,2.40
2023-08-09T03:28:08.511Z,2.05
2023-08-09T03:30:35.883Z,2.20
2023-08-09T03:33:03.500Z,2.55
2023-08-09T03:35:31.805Z,2.20
2023-08-09T03:37:59.898Z,2.20
2023-08-09T03:40:27.475Z,2.50
2023-08-09T03:42:55.718Z,2.10
2023-08-09T03:45:23.897Z,2.15
2023-08-09T03:47:53.986Z,2.42
2023-08-09T03:50:24.053Z,2.20
2023-08-09T03:52:52.143Z,1.98
2023-08-09T03:55:19.721Z,1.92
2023-08-09T03:57:46.969Z,2.00
2023-08-09T04:00:19.181Z,2.00
2023-08-09T04:02:48.387Z,2.00
2023-08-09T04:05:17.922Z,2.03
2023-08-09T04:07:45.355Z,2.00
2023-08-09T04:10:13.717Z,1.90
2023-08-09T04:12:41.250Z,2.40
2023-08-09T04:15:09.434Z,2.25
2023-08-09T04:17:38.166Z,2.10
2023-08-09T04:20:13.534Z,2.20
2023-08-09T04:22:41.269Z,2.40
2023-08-09T04:25:11.802Z,2.45
2023-08-09T04:27:43.177Z,2.55
2023-08-09T04:30:15.470Z,2.35
2023-08-09T04:32:43.365Z,2.20
2023-08-09T04:35:11.575Z,2.25
2023-08-09T04:37:39.039Z,2.30
2023-08-09T04:40:12.558Z,2.53
2023-08-09T04:42:42.348Z,2.47
2023-08-09T04:45:12.159Z,2.30
2023-08-09T04:47:39.732Z,2.30
2023-08-09T04:50:11.086Z,2.95
2023-08-09T04:52:40.040Z,2.35
2023-08-09T04:55:09.414Z,2.80
2023-08-09T05:03:09.479Z,3.10
2023-08-09T05:05:47.080Z,2.83
2023-08-09T05:08:25.035Z,2.85
2023-08-09T05:10:56.357Z,2.90
2023-08-09T05:13:24.579Z,2.63
2023-08-09T05:24:58.242Z,3.13
2023-08-09T05:41:52.298Z,2.95
2023-08-09T05:44:20.441Z,2.83
2023-08-09T05:49:30.533Z,3.30
2023-08-09T05:52:03.914Z,3.20
2023-08-09T05:54:32.361Z,2.97
2023-08-09T05:57:01.015Z,2.55
2023-08-09T06:13:11.945Z,3.38
2023-08-09T06:18:24.794Z,3.70
2023-08-09T06:21:01.545Z,3.80
2023-08-09T06:23:31.121Z,3.30
2023-08-09T07:13:25.573Z,6.75
2023-08-09T07:38:25.535Z,5.57
2023-08-09T07:46:18.487Z,6.03
2023-08-09T08:02:44.165Z,5.30
2023-08-09T08:05:14.681Z,4.53
2023-08-09T08:07:45.044Z,5.43
2023-08-09T09:06:20.464Z,3.20
2023-08-09T09:24:37.737Z,3.50
2023-08-09T10:23:30.690Z,3.28
2023-08-09T10:29:08.334Z,3.75
2023-08-09T10:34:57.077Z,3.50
2023-08-09T10:37:25.832Z,2.80
2023-08-09T10:40:13.910Z,3.17
2023-08-09T10:42:41.503Z,3.45
2023-08-09T10:45:09.917Z,3.13
2023-08-09T10:47:38.029Z,3.10
2023-08-09T10:50:16.255Z,3.17
2023-08-09T10:52:50.501Z,3.40
2023-08-09T10:55:25.963Z,3.65
2023-08-09T10:57:56.636Z,3.25
2023-08-09T11:00:25.762Z,3.78
2023-08-09T11:02:55.809Z,3.10
2023-08-09T11:05:29.090Z,3.10
2023-08-09T11:08:03.975Z,2.92
2023-08-09T11:10:36.719Z,2.90
2023-08-09T11:13:06.389Z,2.65
2023-08-09T11:15:34.840Z,3.00
2023-08-09T11:18:03.070Z,3.17
2023-08-09T11:20:31.498Z,2.80
2023-08-09T11:23:00.473Z,3.03
2023-08-09T11:25:29.588Z,2.75
2023-08-09T11:27:59.396Z,2.80
2023-08-09T11:30:31.614Z,2.55
2023-08-09T11:35:47.832Z,2.60
2023-08-09T11:38:18.223Z,2.88
2023-08-09T11:40:53.714Z,3.10
2023-08-09T11:43:23.042Z,2.45
2023-08-09T11:45:56.305Z,2.70
2023-08-09T11:48:30.903Z,2.40
2023-08-09T11:51:13.564Z,2.45
2023-08-09T11:53:42.391Z,3.03
2023-08-09T11:56:24.627Z,2.58
2023-08-09T11:58:54.143Z,2.83
2023-08-09T12:01:24.234Z,2.60
2023-08-09T12:04:06.940Z,2.67
2023-08-09T12:06:47.959Z,2.20
2023-08-09T12:12:35.355Z,2.70
2023-08-09T12:15:03.132Z,2.95
2023-08-09T12:17:33.322Z,2.80
2023-08-09T14:12:28.118Z,3.20
2023-08-09T14:15:42.590Z,3.10
2023-08-09T14:18:10.031Z,2.80
2023-08-09T14:20:40.247Z,2.53
2023-08-09T14:23:09.975Z,2.80
2023-08-09T14:25:38.182Z,3.08
2023-08-09T14:28:05.870Z,2.92
2023-08-09T14:30:33.638Z,2.35
2023-08-09T14:33:03.608Z,2.90
2023-08-09T14:35:31.928Z,2.80
2023-08-09T14:37:59.250Z,2.90
2023-08-09T14:40:26.725Z,2.90
2023-08-09T14:42:55.344Z,2.40
2023-08-09T14:45:22.752Z,2.80
2023-08-09T14:47:50.285Z,2.42
2023-08-09T14:50:17.972Z,2.30
2023-08-09T14:52:45.470Z,2.65
2023-08-09T14:55:13.135Z,2.50
2023-08-09T14:57:41.486Z,3.33
2023-08-09T15:00:11.749Z,2.20
2023-08-09T15:02:44.752Z,2.28
2023-08-09T15:05:13.058Z,2.40
2023-08-09T15:07:41.346Z,3.20
2023-08-09T15:10:08.972Z,3.10
2023-08-09T15:12:36.698Z,2.22
2023-08-09T15:15:08.444Z,2.40
2023-08-09T15:17:36.261Z,3.17
